Time;durP1;ratioP1;P1;durP2;ratioP2;P2;SDS_P1;SDS_P2;PMS_P1;PMS_P2;Temp;Humidity;BMP_temperature;BMP_pressure;BME280_temperature;BME280_humidity;BME280_pressure;Samples;Min_cycle;Max_cycle;Signal;HPM_P1;HPM_P2
2021/04/01 00:00:49;;;;;;;49.47;24.80;;;;;;;12.61;51.78;98702.72;5063747;28;20431;-77
2021/04/01 00:03:16;;;;;;;44.13;21.80;;;;;;;12.61;51.89;98696.41;5063261;28;20072;-77
2021/04/01 00:05:42;;;;;;;40.92;22.58;;;;;;;12.61;52.03;98697.22;5071292;28;20150;-76
2021/04/01 00:08:08;;;;;;;49.45;22.75;;;;;;;12.62;52.30;98700.78;5053536;28;20100;-76
2021/04/01 00:10:37;;;;;;;46.75;21.58;;;;;;;12.61;51.58;98697.22;5056912;28;20109;-78
2021/04/01 00:13:04;;;;;;;47.28;23.75;;;;;;;12.61;52.01;98690.88;5067008;28;20070;-76
2021/04/01 00:15:29;;;;;;;36.97;19.08;;;;;;;12.58;52.62;98689.56;5067460;28;20029;-77
2021/04/01 00:17:55;;;;;;;39.03;19.65;;;;;;;12.57;52.39;98678.84;5066557;28;20059;-78
2021/04/01 00:20:20;;;;;;;39.25;20.42;;;;;;;12.56;52.01;98682.72;5066502;28;20028;-77
2021/04/01 00:22:45;;;;;;;41.35;20.98;;;;;;;12.51;51.88;98673.44;5066254;28;20567;-77
2021/04/01 00:25:14;;;;;;;43.15;21.02;;;;;;;12.49;52.17;98685.88;5065554;28;20032;-77
2021/04/01 00:27:40;;;;;;;31.95;16.63;;;;;;;12.43;52.82;98674.16;5071013;28;20133;-78
2021/04/01 00:30:07;;;;;;;36.75;19.02;;;;;;;12.41;53.09;98675.59;5071423;28;20683;-77
2021/04/01 00:32:32;;;;;;;38.17;19.17;;;;;;;12.36;53.12;98669.06;5065843;28;20397;-77
2021/04/01 00:34:58;;;;;;;33.85;18.15;;;;;;;12.35;52.57;98677.63;5067344;28;20039;-78
2021/04/01 00:37:23;;;;;;;32.20;18.35;;;;;;;12.31;52.61;98671.09;5067111;28;20536;-77
2021/04/01 00:39:49;;;;;;;34.13;18.95;;;;;;;12.29;53.04;98670.56;5067143;28;20187;-77
2021/04/01 00:42:14;;;;;;;35.38;19.63;;;;;;;12.26;53.22;98669.22;5068476;28;20512;-78
2021/04/01 00:44:39;;;;;;;33.45;18.23;;;;;;;12.24;53.69;98665.16;5066224;28;20461;-78
2021/04/01 00:47:08;;;;;;;35.70;18.55;;;;;;;12.21;54.04;98670.16;5061933;28;20035;-78
2021/04/01 00:49:39;;;;;;;32.85;18.75;;;;;;;12.22;54.76;98659.97;5061287;28;20589;-77
2021/04/01 00:52:06;;;;;;;33.75;17.60;;;;;;;12.20;55.39;98659.47;5060189;28;20020;-78
2021/04/01 00:54:32;;;;;;;37.67;19.33;;;;;;;12.20;54.54;98660.25;5068615;28;20503;-77
2021/04/01 00:56:58;;;;;;;37.40;18.60;;;;;;;12.21;55.47;98650.91;5067784;28;20035;-77
2021/04/01 00:59:25;;;;;;;35.38;19.50;;;;;;;12.20;55.07;98654.75;5069045;28;20025;-78
2021/04/01 01:01:52;;;;;;;38.05;20.35;;;;;;;12.20;55.04;98659.47;5067222;28;20024;-77
2021/04/01 01:04:18;;;;;;;33.45;18.70;;;;;;;12.17;55.36;98643.56;5066927;28;20492;-77
2021/04/01 01:06:44;;;;;;;33.45;18.70;;;;;;;12.16;55.78;98648.22;5067044;28;20091;-78
2021/04/01 01:09:11;;;;;;;34.92;19.65;;;;;;;12.12;56.02;98643.66;5056895;28;20032;-77
2021/04/01 01:11:37;;;;;;;34.60;19.60;;;;;;;12.11;55.66;98642.03;5056085;28;20949;-77
2021/04/01 01:14:04;;;;;;;35.95;18.20;;;;;;;12.06;56.46;98626.41;5062971;28;20065;-77
2021/04/01 01:16:32;;;;;;;35.25;18.80;;;;;;;12.05;55.98;98630.28;5067676;28;20082;-78
2021/04/01 01:18:57;;;;;;;36.35;19.50;;;;;;;12.04;56.03;98628.66;5066934;28;20032;-78
2021/04/01 01:21:23;;;;;;;32.63;19.02;;;;;;;12.02;55.95;98620.72;5066555;28;20486;-78
2021/04/01 01:23:50;;;;;;;34.25;18.15;;;;;;;12.02;56.30;98625.41;5067170;28;20048;-78
2021/04/01 01:26:15;;;;;;;29.88;17.17;;;;;;;12.00;56.49;98619.41;5066741;28;20107;-77
2021/04/01 01:28:41;;;;;;;27.77;15.73;;;;;;;11.99;56.58;98617.75;5064266;28;20092;-77
2021/04/01 01:31:06;;;;;;;32.72;17.88;;;;;;;11.97;56.99;98617.22;5070206;28;20020;-77
2021/04/01 01:33:40;;;;;;;29.45;16.48;;;;;;;11.94;57.14;98613.13;5056819;28;20047;-78
2021/04/01 01:36:06;;;;;;;31.52;17.23;;;;;;;11.90;57.18;98606.59;5065383;28;20032;-78
2021/04/01 01:38:31;;;;;;;30.98;17.98;;;;;;;11.90;57.22;98612.09;5066537;28;20111;-78
2021/04/01 01:40:57;;;;;;;26.60;16.42;;;;;;;11.87;56.89;98601.69;5066881;28;20035;-77
2021/04/01 01:43:22;;;;;;;30.67;17.35;;;;;;;11.87;57.09;98604.44;5065213;28;20028;-78
2021/04/01 01:45:47;;;;;;;26.63;15.15;;;;;;;11.86;57.12;98597.31;5065610;28;20031;-78
2021/04/01 01:48:13;;;;;;;28.70;17.38;;;;;;;11.84;57.53;98594.88;5064516;28;20028;-78
2021/04/01 01:50:39;;;;;;;24.08;15.50;;;;;;;11.84;57.53;98594.88;5059241;28;20032;-77
2021/04/01 01:53:06;;;;;;;25.55;15.50;;;;;;;11.84;57.91;98594.06;5058287;28;20381;-77
2021/04/01 01:55:32;;;;;;;27.45;16.77;;;;;;;11.82;57.16;98594.38;5058616;28;20017;-77
2021/04/01 01:57:57;;;;;;;31.85;17.23;;;;;;;11.80;57.98;98591.09;5064584;28;20028;-77
2021/04/01 02:00:55;;;;;;;31.40;17.58;;;;;;;11.76;56.93;98577.16;5065386;28;20476;-77
2021/04/01 02:03:23;;;;;;;29.92;16.95;;;;;;;11.75;58.52;98585.69;5064532;28;20029;-78
2021/04/01 02:05:49;;;;;;;27.70;16.58;;;;;;;11.73;58.22;98583.25;5065530;28;20064;-78
2021/04/01 02:08:15;;;;;;;28.67;16.48;;;;;;;11.71;57.93;98587.41;5077559;28;20236;-78
2021/04/01 02:10:48;;;;;;;24.90;14.57;;;;;;;11.70;58.89;98588.53;5062950;28;20427;-78
2021/04/01 02:13:16;;;;;;;22.30;15.95;;;;;;;11.71;58.49;98587.41;5057556;28;20051;-78
2021/04/01 02:15:44;;;;;;;28.13;17.10;;;;;;;11.69;58.84;98587.72;5056514;28;20537;-78
2021/04/01 02:18:22;;;;;;;25.13;15.68;;;;;;;11.68;58.48;98580.59;5076555;28;20020;-78
2021/04/01 02:20:49;;;;;;;25.13;15.48;;;;;;;11.68;58.96;98577.84;5063787;28;20020;-78
2021/04/01 02:23:26;;;;;;;28.00;16.15;;;;;;;11.68;58.60;98583.34;5064088;28;20428;-78
2021/04/01 02:25:53;;;;;;;22.13;14.95;;;;;;;11.67;59.30;98573.47;5065047;28;20125;-78
2021/04/01 02:28:20;;;;;;;25.38;16.23;;;;;;;11.64;59.23;98571.31;5063064;28;20020;-77
2021/04/01 02:30:49;;;;;;;26.60;16.40;;;;;;;11.64;58.99;98570.50;5065488;28;20024;-78
2021/04/01 02:33:16;;;;;;;28.15;15.98;;;;;;;11.62;59.05;98571.59;5055998;28;20058;-78
2021/04/01 02:35:42;;;;;;;27.13;14.68;;;;;;;11.59;59.35;98560.41;5057773;28;20035;-77
2021/04/01 02:38:08;;;;;;;31.70;18.58;;;;;;;11.56;59.56;98564.59;5059999;28;20028;-78
2021/04/01 02:40:35;;;;;;;29.38;17.08;;;;;;;11.53;59.12;98559.69;5064189;28;20035;-78
2021/04/01 02:43:01;;;;;;;42.38;22.00;;;;;;;11.51;59.59;98561.09;5064074;28;20028;-78
2021/04/01 02:45:27;;;;;;;41.85;23.60;;;;;;;11.45;59.70;98563.94;5064186;28;20075;-78
2021/04/01 02:47:53;;;;;;;42.75;22.88;;;;;;;11.43;60.29;98555.16;5064740;28;20036;-78
2021/04/01 02:50:18;;;;;;;35.53;21.05;;;;;;;11.39;60.04;98562.41;5064584;28;20060;-78
2021/04/01 02:52:44;;;;;;;32.38;18.92;;;;;;;11.36;59.53;98557.50;5062243;28;20021;-78
2021/04/01 02:55:11;;;;;;;31.17;19.60;;;;;;;11.33;60.00;98555.34;5055333;28;20088;-78
2021/04/01 02:57:37;;;;;;;41.83;23.00;;;;;;;11.32;60.03;98557.28;5067927;28;20025;-78
2021/04/01 03:00:10;;;;;;;33.10;19.38;;;;;;;11.28;60.19;98550.75;5063504;28;20621;-78
2021/04/01 03:02:37;;;;;;;26.33;16.27;;;;;;;11.26;60.13;98558.47;5065535;28;20096;-78
2021/04/01 03:05:06;;;;;;;29.73;18.33;;;;;;;11.27;60.70;98556.53;5064960;28;20066;-77
2021/04/01 03:07:34;;;;;;;30.27;18.65;;;;;;;11.24;60.28;98551.66;5064800;28;20475;-78
2021/04/01 03:09:59;;;;;;;28.73;16.75;;;;;;;11.24;61.46;98551.66;5065270;28;20131;-78
2021/04/01 03:12:25;;;;;;;26.92;16.50;;;;;;;11.24;61.01;98544.22;5065014;28;20259;-78
2021/04/01 03:14:50;;;;;;;31.90;18.90;;;;;;;11.24;61.15;98548.91;5059764;28;20097;-77
2021/04/01 03:17:16;;;;;;;25.50;15.77;;;;;;;11.22;60.67;98545.63;5055427;28;20365;-77
2021/04/01 03:19:41;;;;;;;24.55;14.48;;;;;;;11.21;61.39;98539.31;5060280;28;20099;-77
2021/04/01 03:22:07;;;;;;;27.23;16.17;;;;;;;11.23;62.05;98539.84;5066378;28;20142;-78
2021/04/01 03:24:32;;;;;;;25.55;16.38;;;;;;;11.23;61.68;98539.03;5064535;28;20021;-76
2021/04/01 03:26:57;;;;;;;26.73;15.77;;;;;;;11.21;61.92;98531.06;5065530;28;20028;-77
2021/04/01 03:29:23;;;;;;;30.08;16.92;;;;;;;11.21;61.74;98533.03;5064545;28;20425;-76
2021/04/01 03:31:49;;;;;;;24.85;15.60;;;;;;;11.19;61.43;98540.75;5065218;28;20020;-76
2021/04/01 03:34:14;;;;;;;29.08;15.40;;;;;;;11.17;61.65;98533.63;5065749;28;20024;-76
2021/04/01 03:36:40;;;;;;;26.17;14.30;;;;;;;11.16;62.55;98529.25;5057138;28;20260;-75
2021/04/01 03:39:05;;;;;;;26.27;15.15;;;;;;;11.15;61.69;98526.81;5055932;28;20024;-75
2021/04/01 03:41:31;;;;;;;23.73;14.57;;;;;;;11.11;62.21;98523.81;5060370;28;20029;-76
2021/04/01 03:43:56;;;;;;;29.45;16.48;;;;;;;11.11;62.30;98520.28;5079204;28;20064;-76
2021/04/01 03:46:22;;;;;;;26.55;15.88;;;;;;;11.07;61.61;98513.75;5077591;28;20048;-76
2021/04/01 03:48:47;;;;;;;29.55;18.67;;;;;;;11.06;62.15;98520.34;5066948;28;20035;-74
2021/04/01 03:51:13;;;;;;;28.35;16.58;;;;;;;11.01;62.17;98513.81;5069609;28;20028;-76
2021/04/01 03:53:38;;;;;;;29.38;17.88;;;;;;;11.00;62.01;98519.63;5071575;28;20032;-76
2021/04/01 03:56:04;;;;;;;25.58;16.55;;;;;;;10.98;62.57;98510.88;5066292;28;20025;-77
2021/04/01 04:01:59;;;;;;;29.23;17.02;;;;;;;10.95;62.56;98509.53;5051271;28;20036;-75
2021/04/01 04:07:23;;;;;;;27.38;16.85;;;;;;;10.94;62.51;98518.88;5069665;28;20052;-75
2021/04/01 04:17:37;;;;;;;29.17;17.35;;;;;;;10.92;62.63;98507.38;5065147;28;20036;-75
2021/04/01 04:20:04;;;;;;;39.60;20.60;;;;;;;10.92;63.01;98506.56;5060135;28;20154;-75
2021/04/01 04:22:30;;;;;;;40.60;23.30;;;;;;;10.92;62.44;98510.13;5060129;28;20020;-77
2021/04/01 04:24:56;;;;;;;38.25;22.20;;;;;;;10.92;63.32;98498.34;5068077;28;20039;-76
2021/04/01 04:29:59;;;;;;;45.33;23.40;;;;;;;10.92;63.20;98498.34;5069384;28;20056;-75
2021/04/01 04:32:29;;;;;;;37.80;21.13;;;;;;;10.93;63.19;98489.00;5080033;28;20067;-75
2021/04/01 04:34:55;;;;;;;;;;;;;;;10.93;63.20;98487.06;5068867;28;20025;-76
2021/04/01 04:37:21;;;;;;;47.92;24.77;;;;;;;10.94;63.18;98485.13;5066224;28;19927;-76
2021/04/01 04:39:46;;;;;;;44.75;22.27;;;;;;;10.94;63.35;98487.88;5061674;28;20032;-76
2021/04/01 04:42:12;;;;;;;34.00;19.67;;;;;;;10.93;62.89;98481.56;5058060;28;20020;-76
2021/04/01 04:44:37;;;;;;;33.30;21.40;;;;;;;10.95;63.35;98479.34;5064332;28;20060;-75
2021/04/01 04:47:03;;;;;;;38.97;23.42;;;;;;;10.98;63.52;98480.69;5075819;28;20024;-76
2021/04/01 04:49:28;;;;;;;36.90;21.42;;;;;;;10.99;63.24;98474.09;5093784;28;20378;-76
2021/04/01 04:51:54;;;;;;;38.97;23.00;;;;;;;11.01;62.95;98478.16;5093548;28;20390;-76
2021/04/01 04:54:19;;;;;;;40.28;23.33;;;;;;;11.02;63.33;98477.03;5093547;28;20062;-76
2021/04/01 04:56:46;;;;;;;32.08;19.95;;;;;;;11.05;62.94;98483.03;5093322;28;20025;-75
2021/04/01 04:59:16;;;;;;;40.30;22.70;;;;;;;11.08;62.91;98482.44;5091661;28;20634;-76
2021/04/01 05:04:42;;;;;;;33.85;20.73;;;;;;;11.13;63.08;98479.63;5093225;28;20054;-77
2021/04/01 05:07:08;;;;;;;34.55;21.13;;;;;;;11.16;63.43;98481.78;5090848;28;20028;-76
2021/04/01 05:09:33;;;;;;;30.13;20.35;;;;;;;11.19;63.34;98466.63;5093355;28;20030;-76
2021/04/01 05:11:58;;;;;;;29.98;17.42;;;;;;;11.24;63.59;98475.56;5093365;28;20020;-76
2021/04/01 05:14:24;;;;;;;30.25;18.77;;;;;;;11.26;63.09;98462.38;5093396;28;20016;-77
2021/04/01 05:16:49;;;;;;;29.02;18.55;;;;;;;11.28;63.15;98473.88;5093266;28;20016;-78
2021/04/01 05:19:15;;;;;;;31.85;19.48;;;;;;;11.32;63.01;98468.59;5093270;28;20519;-78
2021/04/01 05:21:58;;;;;;;32.45;19.25;;;;;;;11.38;63.04;98467.41;5093203;28;20028;-77
2021/04/01 05:24:26;;;;;;;35.83;21.27;;;;;;;11.43;62.81;98461.78;5089891;28;20028;-77
2021/04/01 05:29:35;;;;;;;31.45;16.77;;;;;;;11.53;62.44;98462.75;5093108;28;20032;-77
2021/04/01 05:32:03;;;;;;;33.75;19.33;;;;;;;11.60;63.33;98469.47;5093080;28;20099;-77
2021/04/01 05:34:28;;;;;;;35.85;21.13;;;;;;;11.68;62.54;98461.63;5090461;28;20193;-77
2021/04/01 05:36:56;;;;;;;31.50;17.92;;;;;;;11.74;63.30;98466.75;5092994;28;20107;-77
2021/04/01 05:39:29;;;;;;;38.03;19.27;;;;;;;11.82;62.50;98458.94;5093150;28;20095;-78
2021/04/01 05:41:55;;;;;;;39.75;21.10;;;;;;;11.88;62.18;98454.94;5091432;28;20029;-78
2021/04/01 05:44:39;;;;;;;36.83;19.85;;;;;;;11.96;61.98;98458.94;5093771;28;20070;-77
2021/04/01 05:47:21;;;;;;;36.03;18.27;;;;;;;12.05;62.64;98462.59;5093033;28;20107;-78
2021/04/01 06:05:52;;;;;;;31.58;16.67;;;;;;;12.64;60.64;98457.22;5093852;28;20036;-77
2021/04/01 06:08:20;;;;;;;41.30;20.67;;;;;;;12.73;60.71;98450.97;5093712;28;20542;-77
2021/04/01 06:10:48;;;;;;;33.17;18.58;;;;;;;12.80;60.68;98456.88;5091515;28;20153;-78
2021/04/01 06:13:15;;;;;;;39.70;20.88;;;;;;;12.89;60.34;98448.66;5093185;28;20035;-78
2021/04/01 06:15:51;;;;;;;32.78;18.05;;;;;;;12.95;60.42;98447.44;5092989;28;20035;-77
2021/04/01 06:18:22;;;;;;;36.58;18.15;;;;;;;13.03;60.30;98443.94;5092914;28;20088;-78
2021/04/01 06:20:49;;;;;;;37.28;17.50;;;;;;;13.11;59.65;98447.88;5092680;28;20031;-76
2021/04/01 06:23:28;;;;;;;38.15;19.45;;;;;;;13.21;59.67;98450.38;5088680;28;20028;-76
2021/04/01 06:25:54;;;;;;;41.88;20.00;;;;;;;13.31;59.64;98448.50;5089643;28;20043;-76
2021/04/01 06:28:38;;;;;;;39.08;17.85;;;;;;;13.40;59.81;98452.13;5091009;28;20020;-78
2021/04/01 06:31:05;;;;;;;25.27;14.65;;;;;;;13.50;59.20;98456.56;5087409;28;20081;-78
2021/04/01 06:33:42;;;;;;;38.70;17.95;;;;;;;13.60;59.30;98449.97;5086534;28;20035;-78
2021/04/01 06:36:16;;;;;;;33.95;17.50;;;;;;;13.68;58.85;98450.00;5089754;28;20011;-78
2021/04/01 06:38:42;;;;;;;29.75;15.80;;;;;;;13.78;58.62;98443.41;5089185;28;20024;-78
2021/04/01 06:41:13;;;;;;;33.15;15.77;;;;;;;13.86;57.89;98443.78;5091962;28;20489;-79
2021/04/01 06:43:42;;;;;;;26.02;13.93;;;;;;;13.96;58.16;98447.06;5091514;28;20051;-79
2021/04/01 06:46:08;;;;;;;34.45;16.95;;;;;;;14.05;57.83;98444.31;5089215;28;20027;-78
2021/04/01 06:49:05;;;;;;;33.50;16.20;;;;;;;14.13;57.33;98446.28;5090731;28;20120;-78
2021/04/01 06:51:42;;;;;;;24.13;13.98;;;;;;;14.24;57.37;98446.78;5092134;28;20043;-79
2021/04/01 06:57:50;;;;;;;36.20;15.82;;;;;;;14.43;56.20;98448.47;5077247;28;20535;-78
2021/04/01 07:03:19;;;;;;;22.00;12.30;;;;;;;14.59;56.25;98441.34;5092207;28;20044;-79
2021/04/01 07:05:56;;;;;;;22.80;12.40;;;;;;;14.70;56.12;98435.53;5090915;28;20032;-78
2021/04/01 07:08:37;;;;;;;31.92;15.95;;;;;;;14.80;55.92;98434.38;5092483;28;20532;-79
2021/04/01 07:11:06;;;;;;;18.67;10.75;;;;;;;14.92;55.58;98431.78;5091476;28;20098;-79
2021/04/01 07:13:37;;;;;;;20.20;10.38;;;;;;;15.00;55.29;98430.16;5091545;28;20067;-79
2021/04/01 07:16:14;;;;;;;27.50;14.02;;;;;;;15.08;55.74;98426.56;5090848;28;20108;-79
2021/04/01 07:46:31;;;;;;;14.32;8.38;;;;;;;16.42;51.41;98403.59;5096413;28;20392;-79
2021/04/01 07:49:10;;;;;;;22.95;10.18;;;;;;;16.50;51.49;98399.97;5096274;28;20024;-79
2021/04/01 07:54:08;;;;;;;21.40;9.07;;;;;;;16.66;51.20;98394.63;5095560;28;20040;-77
2021/04/01 07:56:43;;;;;;;18.08;8.85;;;;;;;16.76;50.36;98388.66;5095747;28;20103;-78
2021/04/01 08:01:54;;;;;;;19.85;10.13;;;;;;;16.95;50.29;98382.63;5096331;28;20059;-78
2021/04/01 08:04:20;;;;;;;17.02;8.68;;;;;;;17.05;49.35;98384.19;5095188;28;20048;-77
2021/04/01 08:06:45;;;;;;;16.23;8.07;;;;;;;17.19;48.85;98385.84;5095516;28;20395;-78
2021/04/01 08:09:17;;;;;;;15.07;7.60;;;;;;;17.29;47.62;98385.41;5095593;28;20028;-77
2021/04/01 08:11:45;;;;;;;16.48;8.07;;;;;;;17.37;45.97;98383.69;5096066;28;20464;-78
2021/04/01 08:14:30;;;;;;;16.27;9.18;;;;;;;17.43;47.20;98387.84;5095435;28;20024;-78
2021/04/01 08:17:01;;;;;;;15.98;8.18;;;;;;;17.52;45.45;98385.00;5095715;28;20127;-78
2021/04/01 08:19:28;;;;;;;16.52;7.78;;;;;;;17.58;45.77;98380.03;5095766;28;20043;-78
2021/04/01 08:21:55;;;;;;;16.42;8.45;;;;;;;17.64;46.19;98373.91;5095368;28;20107;-78
2021/04/01 08:24:26;;;;;;;20.15;8.23;;;;;;;17.74;46.35;98380.94;5095196;28;20024;-78
2021/04/01 08:27:19;;;;;;;16.92;8.93;;;;;;;17.88;45.24;98379.81;5095310;28;20035;-77
2021/04/01 08:30:59;;;;;;;19.25;9.50;;;;;;;17.94;44.12;98370.91;5095423;28;20028;-78
2021/04/01 08:35:33;;;;;;;21.88;7.38;;;;;;;18.05;44.15;98371.28;5084948;28;20109;-77
2021/04/01 08:40:35;;;;;;;17.05;8.35;;;;;;;18.17;44.20;98369.63;5094852;28;20118;-76
2021/04/01 08:43:36;;;;;;;14.70;7.95;;;;;;;18.24;43.65;98367.91;5094650;28;20119;-78
2021/04/01 08:46:04;;;;;;;14.35;7.95;;;;;;;18.25;43.53;98363.16;5078886;28;20499;-77
2021/04/01 08:48:42;;;;;;;16.35;7.20;;;;;;;18.27;43.22;98366.38;5095047;28;20032;-77
2021/04/01 08:51:07;;;;;;;16.85;8.15;;;;;;;18.40;42.18;98359.66;5094917;28;20042;-78
2021/04/01 08:54:02;;;;;;;14.68;7.63;;;;;;;18.52;41.24;98358.00;5094823;28;20476;-77
2021/04/01 08:56:40;;;;;;;15.32;8.13;;;;;;;18.62;41.37;98353.91;5094668;28;20400;-75
2021/04/01 08:59:26;;;;;;;14.68;6.97;;;;;;;18.68;40.95;98353.31;5093468;28;20024;-75
2021/04/01 09:01:55;;;;;;;16.65;6.80;;;;;;;18.73;41.03;98361.38;5094592;28;20105;-75
2021/04/01 09:04:26;;;;;;;15.17;7.90;;;;;;;18.80;40.56;98346.88;5094382;28;20554;-76
2021/04/01 09:07:12;;;;;;;15.43;7.72;;;;;;;18.86;40.52;98344.69;5089842;28;20415;-76
2021/04/01 09:09:40;;;;;;;15.50;7.68;;;;;;;19.00;39.16;98341.50;5081057;28;20020;-75
2021/04/01 09:14:57;;;;;;;14.63;7.97;;;;;;;19.09;39.65;98344.94;5074490;28;20032;-77
2021/04/01 09:17:33;;;;;;;15.27;8.60;;;;;;;19.24;39.91;98336.97;5093462;28;20048;-76
2021/04/01 09:20:11;;;;;;;24.23;8.98;;;;;;;19.34;39.36;98334.47;5094063;28;20031;-77
2021/04/01 09:22:43;;;;;;;13.25;7.93;;;;;;;19.45;39.81;98325.56;5092382;28;20446;-76
2021/04/01 09:25:09;;;;;;;18.65;8.48;;;;;;;19.58;40.01;98326.28;5090678;28;20031;-76
2021/04/01 09:27:49;;;;;;;14.70;8.52;;;;;;;19.69;40.22;98313.44;5092021;28;20028;-77
2021/04/01 09:30:16;;;;;;;13.93;7.30;;;;;;;19.78;39.81;98325.19;5091089;28;20012;-75
2021/04/01 09:32:43;;;;;;;15.02;7.72;;;;;;;19.89;39.70;98322.69;5093025;28;20027;-77
2021/04/01 09:35:10;;;;;;;13.65;7.40;;;;;;;20.06;39.25;98313.13;5091674;28;20379;-77
2021/04/01 09:37:51;;;;;;;11.30;6.65;;;;;;;20.26;38.03;98323.50;5093060;28;20023;-76
2021/04/01 09:40:18;;;;;;;13.80;7.75;;;;;;;20.43;36.92;98316.69;5091899;28;20468;-77
2021/04/01 09:42:47;;;;;;;14.45;8.07;;;;;;;20.44;37.08;98310.75;5093888;28;20032;-77
2021/04/01 09:45:25;;;;;;;14.82;8.05;;;;;;;20.41;37.74;98305.91;5092576;28;20027;-77
2021/04/01 09:47:55;;;;;;;15.07;7.78;;;;;;;20.48;37.52;98303.28;5090050;28;20032;-77
2021/04/01 09:50:23;;;;;;;13.70;7.45;;;;;;;20.61;37.07;98300.31;5094242;28;20028;-77
2021/04/01 09:53:12;;;;;;;15.07;8.00;;;;;;;20.79;37.07;98297.91;5093940;28;20129;-77
2021/04/01 09:55:40;;;;;;;17.58;8.45;;;;;;;20.94;36.07;98299.81;5092995;28;20023;-77
2021/04/01 09:58:24;;;;;;;14.88;8.27;;;;;;;21.09;34.90;98291.72;5093553;28;20392;-76
2021/04/01 10:03:23;;;;;;;16.65;8.63;;;;;;;21.25;32.23;98281.22;5093525;28;20048;-78
2021/04/01 10:05:49;;;;;;;;;;;;;;;21.27;33.48;98280.88;5094083;28;20067;-77
2021/04/01 10:08:28;;;;;;;18.15;9.05;;;;;;;21.33;32.72;98271.03;5093575;28;19912;-78
2021/04/01 10:10:56;;;;;;;16.70;9.52;;;;;;;21.38;31.83;98270.72;5093621;28;20028;-77
2021/04/01 10:13:26;;;;;;;20.20;10.02;;;;;;;21.45;32.09;98275.59;5093548;28;20024;-77
2021/04/01 10:15:54;;;;;;;19.45;10.15;;;;;;;21.57;30.84;98271.78;5093344;28;20032;-77
2021/04/01 10:18:41;;;;;;;16.08;8.70;;;;;;;21.65;30.88;98259.59;5093254;28;20479;-78
2021/04/01 10:21:11;;;;;;;19.02;9.48;;;;;;;21.78;31.21;98262.16;5093407;28;20044;-77
2021/04/01 10:23:44;;;;;;;18.92;9.75;;;;;;;21.96;31.17;98260.41;5093437;28;20035;-76
2021/04/01 10:26:12;;;;;;;17.25;9.57;;;;;;;22.15;30.47;98253.88;5093389;28;20031;-77
2021/04/01 10:28:55;;;;;;;23.05;11.85;;;;;;;22.28;30.86;98254.44;5093036;28;20387;-77
2021/04/01 10:31:22;;;;;;;22.30;11.07;;;;;;;22.49;29.95;98246.72;5093359;28;20482;-77
2021/04/01 10:33:59;;;;;;;31.92;14.23;;;;;;;22.66;30.53;98245.31;5092888;28;20451;-78
2021/04/01 10:36:29;;;;;;;19.55;10.40;;;;;;;22.89;29.02;98253.53;5092695;28;20487;-78
2021/04/01 10:39:01;;;;;;;;;;;;;;;23.01;28.72;98249.69;5093290;28;20383;-78
2021/04/01 10:41:28;;;;;;;16.10;9.43;;;;;;;23.04;28.40;98229.31;5092745;28;19915;-78
2021/04/01 10:43:59;;;;;;;19.08;10.98;;;;;;;23.07;28.31;98224.94;5092621;28;20032;-77
2021/04/01 10:46:25;;;;;;;14.40;8.48;;;;;;;23.11;27.30;98232.16;5092715;28;20024;-77
2021/04/01 10:48:55;;;;;;;12.73;7.45;;;;;;;23.13;25.64;98229.78;5092726;28;20031;-77
2021/04/01 10:51:23;;;;;;;15.68;9.15;;;;;;;23.15;27.54;98221.81;5092563;28;20028;-77
2021/04/01 10:53:48;;;;;;;18.88;10.25;;;;;;;23.09;26.92;98217.75;5092507;28;20035;-77
2021/04/01 10:56:15;;;;;;;17.85;10.25;;;;;;;23.07;27.42;98222.16;5092188;28;20032;-77
2021/04/01 10:59:07;;;;;;;22.92;11.65;;;;;;;23.06;25.34;98218.53;5092495;28;20023;-77
2021/04/01 11:01:41;;;;;;;23.63;12.32;;;;;;;22.96;25.37;98214.47;5089701;28;20107;-77
2021/04/01 11:04:09;;;;;;;17.90;9.85;;;;;;;22.84;25.85;98212.75;5092379;28;20127;-76
2021/04/01 11:06:35;;;;;;;22.88;11.43;;;;;;;22.78;26.70;98213.50;5092527;28;20520;-77
2021/04/01 11:09:02;;;;;;;22.85;10.10;;;;;;;22.74;26.91;98214.28;5092532;28;20020;-77
2021/04/01 11:11:52;;;;;;;19.73;10.20;;;;;;;22.77;27.21;98211.91;5092493;28;20021;-78
2021/04/01 11:14:23;;;;;;;19.55;10.75;;;;;;;22.82;26.62;98214.34;5092317;28;20077;-77
2021/04/01 11:16:51;;;;;;;17.85;9.73;;;;;;;22.81;26.86;98212.75;5092264;28;20024;-77
2021/04/01 11:19:18;;;;;;;21.90;11.02;;;;;;;22.77;27.02;98217.50;5092013;28;20161;-77
2021/04/01 11:21:44;;;;;;;15.75;9.05;;;;;;;22.67;25.47;98205.00;5091873;28;20020;-77
2021/04/01 11:24:11;;;;;;;20.08;10.73;;;;;;;22.56;25.34;98214.09;5088534;28;20115;-77
2021/04/01 11:26:36;;;;;;;19.70;9.32;;;;;;;22.48;25.36;98214.38;5091560;28;20028;-76
2021/04/01 11:29:11;;;;;;;14.73;9.60;;;;;;;22.42;25.42;98211.09;5090523;28;20027;-77
2021/04/01 11:31:37;;;;;;;15.27;8.07;;;;;;;22.39;25.89;98218.28;5092292;28;20480;-76
2021/04/01 11:34:03;;;;;;;14.82;9.10;;;;;;;22.40;25.65;98210.69;5091982;28;20028;-76
2021/04/01 11:36:36;;;;;;;21.00;10.48;;;;;;;22.33;24.13;98205.00;5091307;28;20130;-75
2021/04/01 11:39:03;;;;;;;16.30;9.15;;;;;;;22.27;25.60;98208.13;5091627;28;20035;-76
2021/04/01 11:41:29;;;;;;;18.35;10.32;;;;;;;22.27;25.06;98208.13;5091787;28;20499;-76
2021/04/01 11:43:57;;;;;;;17.77;10.10;;;;;;;22.34;25.02;98206.63;5090845;28;20028;-75
2021/04/01 11:46:30;;;;;;;17.98;9.70;;;;;;;22.39;25.28;98218.28;5092133;28;20103;-76
2021/04/01 11:48:59;;;;;;;16.85;10.20;;;;;;;22.39;25.13;98203.50;5092074;28;20070;-76
2021/04/01 11:51:34;;;;;;;27.20;13.15;;;;;;;22.31;25.56;98203.41;5092280;28;20028;-76
2021/04/01 11:54:00;;;;;;;23.15;12.88;;;;;;;22.26;25.85;98195.34;5092240;28;20031;-76
2021/04/01 11:56:36;;;;;;;21.15;12.13;;;;;;;22.22;26.41;98193.72;5090696;28;20024;-77
2021/04/01 11:59:13;;;;;;;21.83;12.30;;;;;;;22.19;26.00;98198.09;5092028;28;20126;-76
2021/04/01 12:02:07;;;;;;;22.88;12.43;;;;;;;22.19;26.34;98203.69;5092297;28;20655;-76
2021/04/01 12:04:35;;;;;;;17.38;10.88;;;;;;;22.22;25.43;98202.09;5090614;28;20135;-76
2021/04/01 12:07:04;;;;;;;19.42;10.95;;;;;;;22.18;25.29;98190.06;5090969;28;20375;-76
2021/04/01 12:09:29;;;;;;;19.38;11.27;;;;;;;22.16;25.41;98193.25;5093952;28;20081;-76
2021/04/01 12:11:54;;;;;;;19.98;10.30;;;;;;;22.11;25.37;98188.81;5095658;28;20032;-76
2021/04/01 12:14:30;;;;;;;21.02;10.30;;;;;;;22.13;25.74;98188.44;5095783;28;20035;-77
2021/04/01 12:17:00;;;;;;;27.08;12.60;;;;;;;22.18;25.67;98182.53;5095756;28;20035;-76
2021/04/01 12:19:25;;;;;;;32.80;16.55;;;;;;;22.23;25.72;98184.94;5095607;28;20020;-76
2021/04/01 12:21:51;;;;;;;22.00;11.20;;;;;;;22.21;25.22;98180.94;5095502;28;20403;-76
2021/04/01 12:24:17;;;;;;;25.08;11.82;;;;;;;22.22;25.61;98183.34;5095501;28;20036;-76
2021/04/01 12:26:50;;;;;;;23.33;14.85;;;;;;;22.35;25.89;98185.88;5094377;28;20027;-76
2021/04/01 12:29:16;;;;;;;21.20;11.02;;;;;;;22.46;25.37;98181.25;5095454;28;20024;-76
2021/04/01 12:31:46;;;;;;;20.45;10.98;;;;;;;22.53;25.21;98170.16;5095416;28;20028;-75
2021/04/01 12:34:29;;;;;;;24.85;13.10;;;;;;;22.57;25.52;98162.59;5095453;28;20024;-76
2021/04/01 12:36:56;;;;;;;20.55;11.20;;;;;;;22.60;24.84;98173.03;5095363;28;20032;-76
2021/04/01 12:39:33;;;;;;;20.20;11.10;;;;;;;22.66;24.86;98167.88;5095131;28;20392;-76
2021/04/01 12:41:59;;;;;;;17.80;9.07;;;;;;;22.72;24.09;98165.50;5095461;28;20036;-75
2021/04/01 12:44:53;;;;;;;15.18;9.23;;;;;;;22.71;24.29;98158.31;5095184;28;20028;-75
2021/04/01 12:47:23;;;;;;;18.65;11.55;;;;;;;22.68;24.58;98157.09;5077630;28;20074;-75
2021/04/01 12:49:49;;;;;;;19.70;14.18;;;;;;;22.66;24.48;98153.91;5095136;28;20364;-75
2021/04/01 12:52:14;;;;;;;22.00;12.25;;;;;;;22.59;24.56;98151.03;5094894;28;20387;-75
2021/04/01 12:54:42;;;;;;;21.40;11.88;;;;;;;22.54;24.29;98154.16;5094862;28;20020;-76
2021/04/01 12:57:17;;;;;;;25.75;12.27;;;;;;;22.52;24.47;98148.16;5094788;28;20032;-75
2021/04/01 12:59:48;;;;;;;19.95;11.20;;;;;;;22.58;24.22;98141.03;5094805;28;20568;-75